Time;durP1;ratioP1;P1;durP2;ratioP2;P2;SDS_P1;SDS_P2;PMS_P1;PMS_P2;Temp;Humidity;BMP_temperature;BMP_pressure;BME280_temperature;BME280_humidity;BME280_pressure;Samples;Min_cycle;Max_cycle;Signal;HPM_P1;HPM_P2
2023/08/29 00:02:48;;;;;;;20.80;3.38;;;25.10;71.00;;;;;;5091056;28;20039;-67
2023/08/29 00:06:00;;;;;;;15.68;2.97;;;25.10;71.50;;;;;;5095227;28;20049;-67
2023/08/29 00:09:03;;;;;;;14.82;2.70;;;25.20;71.40;;;;;;5095050;28;20054;-67
2023/08/29 00:12:07;;;;;;;18.52;2.70;;;25.10;71.10;;;;;;5094949;28;20039;-67
2023/08/29 00:15:11;;;;;;;19.75;2.70;;;25.20;71.70;;;;;;5094692;28;20055;-67
2023/08/29 00:18:15;;;;;;;13.45;2.50;;;25.10;71.80;;;;;;5094823;28;20039;-67
2023/08/29 00:21:19;;;;;;;24.00;2.60;;;24.90;72.40;;;;;;5094243;28;20043;-67
2023/08/29 00:24:22;;;;;;;16.80;2.53;;;25.10;72.20;;;;;;5094902;28;20608;-67
2023/08/29 00:27:26;;;;;;;12.68;2.25;;;25.10;71.30;;;;;;5094810;28;20063;-66
2023/08/29 00:30:37;;;;;;;16.98;2.58;;;25.20;71.20;;;;;;5094017;28;20518;-67
2023/08/29 00:33:40;;;;;;;14.93;3.60;;;25.20;70.30;;;;;;5094123;28;20055;-67
2023/08/29 00:36:44;;;;;;;14.48;2.22;;;25.10;70.70;;;;;;5093876;28;20051;-68
2023/08/29 00:39:49;;;;;;;14.73;2.58;;;25.10;70.40;;;;;;5093496;28;20039;-68
2023/08/29 00:42:53;;;;;;;13.32;2.78;;;25.00;70.90;;;;;;5093414;28;20051;-68
2023/08/29 00:45:58;;;;;;;13.75;2.08;;;25.00;71.00;;;;;;5094042;28;20039;-68
2023/08/29 00:49:03;;;;;;;13.60;2.28;;;24.90;71.10;;;;;;5081869;28;20035;-67
2023/08/29 00:52:07;;;;;;;7.07;1.88;;;25.00;71.20;;;;;;5094296;28;20051;-67
2023/08/29 00:55:11;;;;;;;12.48;1.98;;;25.00;70.80;;;;;;5092861;28;20055;-67
2023/08/29 00:58:15;;;;;;;8.68;1.98;;;25.00;71.00;;;;;;5093026;28;20051;-66
2023/08/29 01:01:20;;;;;;;12.02;2.30;;;25.10;71.20;;;;;;5092948;28;20051;-67
2023/08/29 01:04:24;;;;;;;11.98;1.92;;;25.10;71.10;;;;;;5093969;28;20042;-67
2023/08/29 01:07:28;;;;;;;8.13;1.55;;;25.10;71.50;;;;;;5093988;28;20043;-66
2023/08/29 01:11:11;;;;;;;24.90;2.83;;;25.20;72.10;;;;;;5093815;28;20395;-68
2023/08/29 01:14:21;;;;;;;23.27;2.80;;;25.10;73.90;;;;;;5092655;28;20051;-67
2023/08/29 01:17:34;;;;;;;16.45;2.80;;;24.90;79.80;;;;;;5093630;28;20415;-67
2023/08/29 01:20:40;;;;;;;15.68;3.10;;;24.80;79.10;;;;;;5093846;28;20043;-67
2023/08/29 01:23:54;;;;;;;20.00;2.63;;;24.50;78.90;;;;;;5093461;28;20062;-67
2023/08/29 01:26:59;;;;;;;9.68;1.90;;;24.70;79.60;;;;;;5093122;28;20043;-68
2023/08/29 01:30:05;;;;;;;13.00;2.13;;;24.70;80.00;;;;;;5092432;28;20074;-67
2023/08/29 01:33:10;;;;;;;11.63;2.08;;;24.60;80.10;;;;;;5093065;28;20055;-68
2023/08/29 01:36:15;;;;;;;10.60;1.88;;;24.60;78.90;;;;;;5092800;28;20047;-68
2023/08/29 01:39:19;;;;;;;11.52;1.70;;;24.50;77.90;;;;;;5093598;28;20055;-68
2023/08/29 01:42:23;;;;;;;15.57;1.63;;;24.40;75.80;;;;;;5080778;28;20043;-68
2023/08/29 01:45:27;;;;;;;8.23;1.58;;;23.70;75.10;;;;;;5092554;28;20519;-68
2023/08/29 01:48:31;;;;;;;8.18;1.48;;;24.50;74.60;;;;;;5093356;28;20043;-68
2023/08/29 01:51:36;;;;;;;11.02;1.70;;;24.40;75.00;;;;;;5092991;28;20043;-68
2023/08/29 01:54:40;;;;;;;9.48;1.80;;;24.20;72.80;;;;;;5092876;28;20055;-68
2023/08/29 01:57:44;;;;;;;9.63;1.60;;;24.30;72.10;;;;;;5093091;28;20063;-67
2023/08/29 02:00:49;;;;;;;8.35;1.75;;;24.40;72.40;;;;;;5080649;28;20043;-67
2023/08/29 02:03:56;;;;;;;7.43;1.40;;;24.40;72.80;;;;;;5092746;28;20043;-67
2023/08/29 02:07:00;;;;;;;7.47;1.52;;;24.30;72.10;;;;;;5093022;28;20043;-67
2023/08/29 02:10:04;;;;;;;7.10;1.50;;;22.90;71.40;;;;;;5092880;28;20055;-67
2023/08/29 02:13:09;;;;;;;8.40;1.58;;;23.20;71.10;;;;;;5092948;28;20051;-67
2023/08/29 02:16:13;;;;;;;5.72;1.50;;;24.40;72.20;;;;;;5092690;28;20062;-67
2023/08/29 02:19:17;;;;;;;6.78;1.23;;;24.50;71.80;;;;;;5091613;28;20043;-67
2023/08/29 02:22:21;;;;;;;10.98;1.20;;;24.50;72.40;;;;;;5092777;28;20054;-68
2023/08/29 02:25:25;;;;;;;8.77;1.60;;;24.40;73.20;;;;;;5092380;28;20043;-67
2023/08/29 02:28:30;;;;;;;7.07;1.45;;;24.50;73.80;;;;;;5092623;28;20047;-67
2023/08/29 02:31:34;;;;;;;10.48;1.80;;;24.50;74.40;;;;;;5091529;28;20039;-67
2023/08/29 02:34:38;;;;;;;8.55;1.67;;;24.00;74.80;;;;;;5091296;28;20047;-67
2023/08/29 02:37:43;;;;;;;8.60;1.90;;;24.40;75.50;;;;;;5092147;28;20058;-67
2023/08/29 02:40:47;;;;;;;8.38;2.30;;;24.40;75.50;;;;;;5092071;28;20039;-67
2023/08/29 02:43:52;;;;;;;7.63;1.73;;;23.90;75.80;;;;;;5090949;28;20048;-68
2023/08/29 02:46:56;;;;;;;8.98;2.13;;;24.30;76.10;;;;;;5092075;28;20043;-68
2023/08/29 02:50:01;;;;;;;11.88;1.60;;;24.30;76.70;;;;;;5091934;28;20039;-68
2023/08/29 02:53:08;;;;;;;7.65;1.40;;;24.40;77.30;;;;;;5091915;28;20506;-68
2023/08/29 02:56:12;;;;;;;6.28;1.60;;;25.50;78.40;;;;;;5090993;28;20043;-68
2023/08/29 02:59:16;;;;;;;11.50;1.80;;;24.30;78.80;;;;;;5091134;28;20043;-67
2023/08/29 03:02:19;;;;;;;15.57;1.98;;;24.20;78.90;;;;;;5091936;28;20058;-68
2023/08/29 03:05:23;;;;;;;7.93;1.67;;;24.20;80.00;;;;;;5091459;28;20039;-67
2023/08/29 03:08:27;;;;;;;8.80;1.60;;;24.20;80.50;;;;;;5091820;28;20047;-68
2023/08/29 03:11:32;;;;;;;9.27;1.98;;;24.30;81.20;;;;;;5090707;28;20042;-68
2023/08/29 03:14:36;;;;;;;12.18;2.03;;;24.30;81.60;;;;;;5090598;28;20048;-68
2023/08/29 03:17:43;;;;;;;12.82;1.90;;;24.10;81.60;;;;;;5090597;28;20039;-68
2023/08/29 03:20:47;;;;;;;10.18;2.13;;;24.30;82.20;;;;;;5090785;28;20035;-67
2023/08/29 03:23:51;;;;;;;13.50;2.58;;;24.10;82.00;;;;;;5091289;28;20515;-69
2023/08/29 03:26:54;;;;;;;18.90;4.05;;;24.30;82.70;;;;;;5090422;28;20094;-67
2023/08/29 03:29:58;;;;;;;12.43;3.38;;;24.30;83.10;;;;;;5090866;28;20043;-67
2023/08/29 03:33:02;;;;;;;11.13;1.95;;;24.30;82.50;;;;;;5091191;28;20051;-67
2023/08/29 03:36:07;;;;;;;8.88;2.10;;;24.30;76.90;;;;;;5090504;28;20051;-67
2023/08/29 03:39:11;;;;;;;10.40;1.80;;;23.20;76.00;;;;;;5089968;28;20039;-67
2023/08/29 03:42:15;;;;;;;7.35;1.70;;;24.40;75.40;;;;;;5091304;28;20043;-67
2023/08/29 03:45:19;;;;;;;8.63;1.95;;;24.50;75.10;;;;;;5091082;28;20039;-68
2023/08/29 03:48:24;;;;;;;11.52;2.25;;;24.60;75.00;;;;;;5091560;28;20051;-67
2023/08/29 03:51:28;;;;;;;10.15;1.63;;;24.60;74.70;;;;;;5091089;28;20047;-67
2023/08/29 03:54:32;;;;;;;11.13;2.08;;;24.60;75.00;;;;;;5090897;28;20071;-67
2023/08/29 03:57:36;;;;;;;13.10;2.70;;;24.60;75.10;;;;;;5090538;28;20063;-67
2023/08/29 04:00:44;;;;;;;11.23;2.38;;;24.80;73.80;;;;;;5091173;28;20380;-68
2023/08/29 04:03:48;;;;;;;8.90;1.60;;;24.60;73.00;;;;;;5090073;28;20043;-68
2023/08/29 04:06:53;;;;;;;12.30;2.00;;;24.70;73.10;;;;;;5090096;28;20047;-67
2023/08/29 04:09:56;;;;;;;9.13;1.33;;;24.70;73.60;;;;;;5090300;28;20039;-67
2023/08/29 04:13:00;;;;;;;5.35;1.38;;;24.70;74.30;;;;;;5091160;28;20395;-67
2023/08/29 04:16:04;;;;;;;8.50;1.90;;;24.60;75.40;;;;;;5090819;28;20058;-67
2023/08/29 04:19:08;;;;;;;10.15;1.80;;;24.50;76.70;;;;;;5089964;28;20078;-67
2023/08/29 04:22:12;;;;;;;12.07;2.00;;;24.40;77.50;;;;;;5090300;28;20147;-67
2023/08/29 04:25:16;;;;;;;11.15;1.88;;;24.40;78.50;;;;;;5089776;28;20043;-67
2023/08/29 04:28:20;;;;;;;11.15;1.92;;;24.30;78.80;;;;;;5090923;28;20051;-67
2023/08/29 04:31:25;;;;;;;30.67;3.63;;;24.30;79.60;;;;;;5090952;28;20407;-67
2023/08/29 04:34:29;;;;;;;32.45;5.97;;;24.20;81.20;;;;;;5090412;28;20047;-67
2023/08/29 04:37:34;;;;;;;16.50;2.80;;;24.00;89.80;;;;;;5089979;28;20399;-67
2023/08/29 04:40:38;;;;;;;12.32;2.42;;;23.20;90.30;;;;;;5089843;28;20043;-68
2023/08/29 04:43:42;;;;;;;10.02;2.15;;;23.00;90.10;;;;;;5090452;28;20047;-67
2023/08/29 04:46:46;;;;;;;13.35;2.58;;;23.00;90.50;;;;;;5090130;28;20383;-67
2023/08/29 04:49:50;;;;;;;11.43;2.20;;;23.00;90.20;;;;;;5092759;28;20047;-67
2023/08/29 04:52:55;;;;;;;15.07;3.05;;;22.90;90.70;;;;;;5092950;28;20043;-67
2023/08/29 04:56:03;;;;;;;12.98;2.70;;;22.80;91.10;;;;;;5092829;28;20055;-67
2023/08/29 04:59:12;;;;;;;13.52;3.05;;;22.80;91.50;;;;;;5093283;28;20047;-67
2023/08/29 05:02:16;;;;;;;15.00;2.55;;;22.80;91.30;;;;;;5092885;28;20047;-67
2023/08/29 05:05:20;;;;;;;15.90;3.15;;;22.80;92.00;;;;;;5092976;28;20043;-67
2023/08/29 05:08:24;;;;;;;15.82;2.90;;;22.70;92.10;;;;;;5093933;28;20048;-67
2023/08/29 05:11:28;;;;;;;17.00;4.07;;;23.30;92.90;;;;;;5092674;28;20392;-66
2023/08/29 05:14:31;;;;;;;15.35;3.50;;;22.30;93.10;;;;;;5093292;28;20051;-67
2023/08/29 05:17:36;;;;;;;16.10;3.10;;;22.20;93.00;;;;;;5093688;28;20056;-66
2023/08/29 05:20:40;;;;;;;15.02;2.72;;;22.40;93.70;;;;;;5092326;28;20395;-66
2023/08/29 05:23:43;;;;;;;15.38;3.28;;;22.50;93.60;;;;;;5092445;28;20043;-66
2023/08/29 05:26:48;;;;;;;18.67;3.38;;;22.70;92.90;;;;;;5093096;28;20047;-66
2023/08/29 05:29:52;;;;;;;16.25;2.80;;;22.80;93.00;;;;;;5092992;28;20047;-66
2023/08/29 05:32:56;;;;;;;18.60;3.00;;;23.00;92.80;;;;;;5092790;28;20054;-66
2023/08/29 05:36:00;;;;;;;19.77;3.58;;;23.10;92.70;;;;;;5092996;28;20526;-66
2023/08/29 05:39:04;;;;;;;20.65;3.28;;;23.10;92.40;;;;;;5093253;28;20043;-67
2023/08/29 05:42:08;;;;;;;20.80;2.92;;;23.20;92.00;;;;;;5093610;28;20043;-67
2023/08/29 05:45:12;;;;;;;12.07;2.67;;;23.20;91.70;;;;;;5092756;28;20043;-66
2023/08/29 05:48:16;;;;;;;21.02;3.17;;;23.30;91.20;;;;;;5092781;28;20043;-67
2023/08/29 05:51:22;;;;;;;11.60;3.33;;;23.30;90.90;;;;;;5092915;28;20404;-67
2023/08/29 05:54:27;;;;;;;13.40;3.20;;;23.30;91.20;;;;;;5092745;28;20102;-66
2023/08/29 05:57:30;;;;;;;15.65;3.47;;;23.30;91.20;;;;;;5093159;28;20392;-67
2023/08/29 06:00:35;;;;;;;14.93;2.47;;;23.20;91.70;;;;;;5092066;28;20039;-67
2023/08/29 06:03:39;;;;;;;14.48;2.42;;;23.10;92.60;;;;;;5092343;28;20055;-67
2023/08/29 06:06:44;;;;;;;24.02;9.00;;;23.00;92.30;;;;;;5092648;28;20150;-67
2023/08/29 06:09:47;;;;;;;17.05;3.22;;;23.00;92.80;;;;;;5092661;28;20039;-65
2023/08/29 06:12:51;;;;;;;18.33;3.20;;;23.10;93.00;;;;;;5092707;28;20391;-66
2023/08/29 06:15:56;;;;;;;20.27;3.83;;;23.00;93.50;;;;;;5091536;28;20411;-67
2023/08/29 06:19:00;;;;;;;19.58;3.58;;;23.30;93.40;;;;;;5092633;28;20047;-67
2023/08/29 06:22:06;;;;;;;16.48;3.30;;;23.10;93.30;;;;;;5092433;28;20047;-67
2023/08/29 06:25:10;;;;;;;19.25;4.03;;;22.60;93.70;;;;;;5092532;28;20050;-68
2023/08/29 06:28:14;;;;;;;13.40;3.47;;;23.30;93.80;;;;;;5091545;28;20051;-67
2023/08/29 06:31:18;;;;;;;22.40;4.10;;;23.40;93.10;;;;;;5091329;28;20043;-68
2023/08/29 06:34:23;;;;;;;30.98;4.78;;;23.50;92.90;;;;;;5092260;28;20399;-67
2023/08/29 06:37:27;;;;;;;21.50;4.05;;;23.70;93.00;;;;;;5092017;28;20471;-66
2023/08/29 06:40:34;;;;;;;20.63;4.20;;;23.70;93.40;;;;;;5092376;28;20051;-68
2023/08/29 06:43:38;;;;;;;17.17;3.90;;;24.30;93.10;;;;;;5092145;28;20051;-68
2023/08/29 06:46:42;;;;;;;18.63;3.80;;;24.90;92.50;;;;;;5092064;28;20503;-67
2023/08/29 06:49:46;;;;;;;21.65;3.97;;;25.30;91.40;;;;;;5091309;28;20046;-67
2023/08/29 06:52:50;;;;;;;22.95;3.90;;;25.60;90.70;;;;;;5090873;28;20079;-67
2023/08/29 06:55:54;;;;;;;20.77;4.22;;;26.10;90.00;;;;;;5091712;28;20055;-66
2023/08/29 06:58:58;;;;;;;25.65;3.75;;;26.60;87.40;;;;;;5091583;28;20051;-67
2023/08/29 07:02:02;;;;;;;16.13;3.10;;;27.00;86.10;;;;;;5091700;28;20047;-67
2023/08/29 07:05:07;;;;;;;20.15;4.00;;;27.40;82.60;;;;;;5091446;28;20051;-67
2023/08/29 07:08:11;;;;;;;10.57;3.70;;;27.50;81.90;;;;;;5091484;28;20043;-66
2023/08/29 07:11:15;;;;;;;17.38;2.85;;;27.70;79.40;;;;;;5091698;28;20055;-68
2023/08/29 07:14:19;;;;;;;14.30;3.00;;;27.90;78.40;;;;;;5089973;28;20522;-67
2023/08/29 07:17:23;;;;;;;19.75;2.80;;;27.80;75.30;;;;;;5091574;28;20050;-67
2023/08/29 07:20:27;;;;;;;11.65;2.92;;;27.70;74.10;;;;;;5091644;28;20047;-69
2023/08/29 07:23:31;;;;;;;17.95;3.38;;;27.40;75.70;;;;;;5091408;28;20055;-68
2023/08/29 07:26:34;;;;;;;18.48;3.70;;;27.20;75.40;;;;;;5090717;28;20067;-69
2023/08/29 07:29:38;;;;;;;14.50;3.03;;;26.90;74.80;;;;;;5091265;28;20499;-69
2023/08/29 07:32:44;;;;;;;18.73;3.40;;;26.60;76.10;;;;;;5090249;28;20047;-70
2023/08/29 07:35:48;;;;;;;19.77;3.00;;;26.50;75.40;;;;;;5091085;28;20055;-76
2023/08/29 07:38:52;;;;;;;19.67;2.75;;;26.30;75.70;;;;;;5091256;28;20043;-76
2023/08/29 07:41:56;;;;;;;14.68;2.72;;;26.20;76.00;;;;;;5090342;28;20039;-72
2023/08/29 07:45:00;;;;;;;17.58;2.88;;;26.10;76.90;;;;;;5090896;28;20570;-74
2023/08/29 07:48:04;;;;;;;17.27;3.47;;;26.10;77.20;;;;;;5090460;28;20062;-72
2023/08/29 07:51:08;;;;;;;14.60;3.22;;;26.30;77.60;;;;;;5090082;28;20043;-73
2023/08/29 07:54:12;;;;;;;24.02;3.30;;;26.40;75.30;;;;;;5090792;28;20062;-73
2023/08/29 07:57:19;;;;;;;22.40;4.28;;;26.50;74.60;;;;;;5090255;28;20123;-72
2023/08/29 08:00:24;;;;;;;16.45;3.35;;;26.70;75.30;;;;;;5091154;28;20494;-70
2023/08/29 08:03:29;;;;;;;25.88;3.95;;;27.00;73.90;;;;;;5090918;28;20051;-70
2023/08/29 08:06:36;;;;;;;23.13;3.30;;;27.10;73.40;;;;;;5091219;28;20047;-71
2023/08/29 08:09:42;;;;;;;24.42;3.40;;;27.10;72.60;;;;;;5090789;28;20055;-72
2023/08/29 08:12:47;;;;;;;28.45;3.38;;;26.90;72.70;;;;;;5090137;28;20039;-69
2023/08/29 08:15:52;;;;;;;21.73;3.90;;;26.80;73.70;;;;;;5090802;28;20396;-70
2023/08/29 08:18:55;;;;;;;9.48;2.13;;;26.60;73.40;;;;;;5090973;28;20055;-69
2023/08/29 08:21:59;;;;;;;14.13;2.40;;;26.50;72.40;;;;;;5090903;28;20050;-69
2023/08/29 08:25:04;;;;;;;15.15;3.20;;;27.00;73.00;;;;;;5093535;28;20043;-69
2023/08/29 08:28:08;;;;;;;9.85;2.50;;;27.50;73.10;;;;;;5095112;28;20047;-69
2023/08/29 08:31:11;;;;;;;20.50;3.63;;;28.00;71.90;;;;;;5094772;28;20102;-69
2023/08/29 08:34:15;;;;;;;18.13;3.33;;;28.30;72.00;;;;;;5094487;28;20534;-68
2023/08/29 08:37:20;;;;;;;19.77;4.63;;;28.60;71.00;;;;;;5093925;28;20059;-68
2023/08/29 08:40:24;;;;;;;15.95;3.70;;;28.90;71.80;;;;;;5094513;28;20046;-71
2023/08/29 08:43:29;;;;;;;10.27;2.70;;;29.00;70.70;;;;;;5094135;28;20495;-69
2023/08/29 08:46:34;;;;;;;18.40;2.80;;;29.20;70.90;;;;;;5094217;28;20491;-70
2023/08/29 08:49:39;;;;;;;14.75;3.75;;;29.30;70.20;;;;;;5093918;28;20043;-69
2023/08/29 08:52:44;;;;;;;11.70;2.72;;;29.20;69.70;;;;;;5094067;28;20063;-69
2023/08/29 08:55:52;;;;;;;10.63;2.38;;;29.00;68.60;;;;;;5094069;28;20059;-70
2023/08/29 08:58:56;;;;;;;11.60;3.00;;;29.00;69.00;;;;;;5093356;28;20039;-69
2023/08/29 09:02:00;;;;;;;16.77;2.88;;;28.90;68.70;;;;;;5094258;28;20043;-70
2023/08/29 09:05:06;;;;;;;12.05;2.88;;;28.80;68.90;;;;;;5093930;28;20054;-69
2023/08/29 09:08:10;;;;;;;13.55;2.85;;;28.70;69.10;;;;;;5094045;28;20554;-68
2023/08/29 09:11:18;;;;;;;21.90;3.22;;;28.90;69.00;;;;;;5092159;28;20747;-70
2023/08/29 09:14:23;;;;;;;10.00;2.40;;;29.00;68.90;;;;;;5093155;28;20039;-69
2023/08/29 09:17:27;;;;;;;11.55;2.63;;;28.90;68.20;;;;;;5093095;28;20514;-69
2023/08/29 09:20:34;;;;;;;14.93;2.38;;;28.90;68.10;;;;;;5093379;28;20039;-67
2023/08/29 09:23:39;;;;;;;25.75;2.88;;;28.80;68.50;;;;;;5093324;28;20419;-67
2023/08/29 09:26:43;;;;;;;18.40;3.20;;;28.70;68.70;;;;;;5093650;28;20039;-68
2023/08/29 09:29:47;;;;;;;20.17;3.20;;;28.60;67.50;;;;;;5093171;28;20059;-67
2023/08/29 09:32:54;;;;;;;19.67;2.90;;;28.30;68.80;;;;;;5093370;28;20059;-68
2023/08/29 09:36:06;;;;;;;10.38;2.88;;;28.10;70.00;;;;;;5092491;28;20059;-67
2023/08/29 09:39:13;;;;;;;12.80;2.60;;;28.00;70.40;;;;;;5093256;28;20043;-68
2023/08/29 09:42:19;;;;;;;17.98;3.50;;;27.90;70.40;;;;;;5092633;28;20110;-68
2023/08/29 09:45:23;;;;;;;15.93;2.58;;;27.90;70.10;;;;;;5093100;28;20055;-68
2023/08/29 09:48:28;;;;;;;18.40;2.97;;;27.80;69.50;;;;;;5093036;28;20047;-68
2023/08/29 09:51:33;;;;;;;19.95;3.08;;;27.90;71.10;;;;;;5092413;28;20062;-68
2023/08/29 09:54:44;;;;;;;17.75;3.13;;;27.90;71.90;;;;;;5093134;28;20045;-68
2023/08/29 09:57:52;;;;;;;;;;;27.90;72.60;;;;;;5093252;28;20047;-67
2023/08/29 10:00:57;;;;;;;13.40;3.20;;;27.80;72.50;;;;;;5092891;28;19931;-68
2023/08/29 10:04:06;;;;;;;19.45;3.75;;;27.80;72.50;;;;;;5092712;28;20043;-67
2023/08/29 10:07:20;;;;;;;20.27;3.30;;;27.90;72.60;;;;;;5092785;28;20047;-67
2023/08/29 10:10:24;;;;;;;19.10;3.40;;;28.00;71.00;;;;;;5092791;28;20051;-68
2023/08/29 10:13:28;;;;;;;19.20;3.65;;;28.00;69.90;;;;;;5091740;28;20050;-67
2023/08/29 10:16:34;;;;;;;18.38;2.90;;;28.00;69.80;;;;;;5092484;28;20063;-67
2023/08/29 10:19:39;;;;;;;19.52;3.08;;;28.00;70.60;;;;;;5092138;28;20047;-67
2023/08/29 10:22:48;;;;;;;16.98;2.60;;;28.00;70.30;;;;;;5092514;28;20388;-66
2023/08/29 10:25:52;;;;;;;16.15;2.58;;;28.20;70.00;;;;;;5091907;28;20384;-67
2023/08/29 10:28:56;;;;;;;17.15;3.10;;;28.50;68.50;;;;;;5091272;28;20157;-68
2023/08/29 10:32:02;;;;;;;17.60;2.80;;;28.80;68.00;;;;;;5092457;28;20047;-68
2023/08/29 10:35:22;;;;;;;10.00;2.63;;;29.00;67.30;;;;;;5091196;28;20039;-68
2023/08/29 10:38:28;;;;;;;13.05;2.25;;;29.20;66.40;;;;;;5092191;28;20506;-67
2023/08/29 10:41:52;;;;;;;12.45;3.28;;;29.40;65.90;;;;;;5092144;28;20511;-68
2023/08/29 10:44:56;;;;;;;13.27;2.78;;;29.40;65.10;;;;;;5092009;28;20043;-68
2023/08/29 10:48:00;;;;;;;20.02;3.22;;;29.30;65.50;;;;;;5091814;28;20059;-68
2023/08/29 10:51:10;;;;;;;15.60;3.47;;;29.40;66.60;;;;;;5092051;28;20050;-68
2023/08/29 10:54:13;;;;;;;18.35;3.75;;;29.50;67.30;;;;;;5091886;28;20043;-67
2023/08/29 10:57:28;;;;;;;12.50;2.78;;;29.30;67.20;;;;;;5091893;28;20071;-67
2023/08/29 11:00:41;;;;;;;17.50;3.20;;;29.20;67.80;;;;;;5090991;28;20043;-68
2023/08/29 11:03:48;;;;;;;19.40;4.03;;;29.30;68.20;;;;;;5090648;28;20391;-69
2023/08/29 11:06:54;;;;;;;13.75;3.20;;;29.40;68.80;;;;;;5090624;28;20136;-69
2023/08/29 11:10:20;;;;;;;15.82;3.20;;;29.30;69.30;;;;;;5090610;28;20059;-69
2023/08/29 11:13:24;;;;;;;21.95;3.92;;;29.10;69.80;;;;;;5090398;28;20043;-69
2023/08/29 11:16:35;;;;;;;12.35;3.42;;;28.90;69.10;;;;;;5090786;28;20118;-69
2023/08/29 11:19:39;;;;;;;16.00;3.20;;;28.80;69.70;;;;;;5091612;28;20047;-69
2023/08/29 11:22:47;;;;;;;29.05;5.53;;;28.60;69.40;;;;;;5091085;28;20043;-69
2023/08/29 11:25:52;;;;;;;18.15;3.53;;;28.40;68.60;;;;;;5091214;28;20042;-68
2023/08/29 11:28:56;;;;;;;11.10;2.70;;;28.50;68.60;;;;;;5091487;28;20047;-69
2023/08/29 11:32:00;;;;;;;7.75;2.50;;;28.50;68.00;;;;;;5090981;28;20537;-68
2023/08/29 11:35:04;;;;;;;13.20;2.83;;;28.60;67.40;;;;;;5091097;28;20047;-68
2023/08/29 11:38:08;;;;;;;12.55;2.90;;;28.70;67.30;;;;;;5091494;28;20058;-69
2023/08/29 11:41:14;;;;;;;14.18;2.80;;;28.70;66.50;;;;;;5091261;28;20499;-69
2023/08/29 11:44:18;;;;;;;19.17;3.22;;;28.80;67.20;;;;;;5091174;28;20481;-68
2023/08/29 11:47:24;;;;;;;16.27;3.75;;;28.80;67.30;;;;;;5091340;28;20047;-68
2023/08/29 11:50:32;;;;;;;12.88;2.88;;;28.90;66.90;;;;;;5091700;28;20043;-70
2023/08/29 11:53:37;;;;;;;14.45;2.83;;;28.90;66.80;;;;;;5091935;28;20392;-68
2023/08/29 11:56:42;;;;;;;16.10;3.25;;;28.70;66.40;;;;;;5091620;28;20629;-69
2023/08/29 11:59:47;;;;;;;18.13;3.45;;;28.50;66.70;;;;;;5094099;28;20047;-69
2023/08/29 12:02:51;;;;;;;18.23;3.15;;;28.40;67.70;;;;;;5095747;28;20047;-68
2023/08/29 12:05:59;;;;;;;12.20;2.78;;;28.30;68.40;;;;;;5095578;28;20035;-68
2023/08/29 12:09:04;;;;;;;17.90;2.85;;;28.20;68.80;;;;;;5095370;28;20407;-68
2023/08/29 12:12:09;;;;;;;9.18;2.22;;;28.20;69.10;;;;;;5095517;28;20047;-68
2023/08/29 12:15:17;;;;;;;18.85;3.08;;;28.20;68.60;;;;;;5094996;28;20047;-68
2023/08/29 12:18:25;;;;;;;23.60;3.63;;;28.20;69.00;;;;;;5094802;28;20043;-68
2023/08/29 12:21:29;;;;;;;11.13;3.03;;;28.10;70.70;;;;;;5095204;28;20388;-69
2023/08/29 12:24:33;;;;;;;18.15;3.40;;;28.10;70.90;;;;;;5094609;28;20047;-67
2023/08/29 12:27:37;;;;;;;18.23;4.22;;;28.10;71.10;;;;;;5094786;28;20055;-68
2023/08/29 12:30:41;;;;;;;17.63;4.25;;;28.10;71.30;;;;;;5093746;28;20518;-68
2023/08/29 12:33:45;;;;;;;20.60;4.10;;;28.00;72.00;;;;;;5094113;28;20051;-68
2023/08/29 12:36:50;;;;;;;23.80;4.78;;;27.90;71.80;;;;;;5094245;28;20051;-68
2023/08/29 12:39:53;;;;;;;19.80;3.70;;;28.00;72.10;;;;;;5094453;28;20039;-68
2023/08/29 12:42:57;;;;;;;14.30;3.55;;;28.10;72.00;;;;;;5093470;28;20047;-68
2023/08/29 12:46:01;;;;;;;18.63;3.88;;;28.10;71.50;;;;;;5094110;28;20471;-68
2023/08/29 12:49:07;;;;;;;14.70;3.55;;;28.10;70.80;;;;;;5094428;28;20047;-67
2023/08/29 12:52:14;;;;;;;14.52;3.45;;;28.10;71.20;;;;;;5094351;28;20039;-68
2023/08/29 12:55:18;;;;;;;13.77;2.65;;;28.00;71.10;;;;;;5094095;28;20102;-68
2023/08/29 12:58:22;;;;;;;19.70;3.55;;;27.90;71.70;;;;;;5093923;28;20518;-68
2023/08/29 13:01:27;;;;;;;17.98;3.72;;;27.80;76.90;;;;;;5094211;28;20502;-68
2023/08/29 13:04:31;;;;;;;14.68;3.22;;;27.60;79.10;;;;;;5093241;28;20043;-69
2023/08/29 13:07:35;;;;;;;19.13;3.72;;;27.40;80.70;;;;;;5093731;28;20055;-69
2023/08/29 13:10:40;;;;;;;10.27;3.25;;;27.20;79.90;;;;;;5091614;28;20051;-68
2023/08/29 13:13:45;;;;;;;16.90;3.75;;;27.10;81.30;;;;;;5093932;28;20051;-68
2023/08/29 13:16:49;;;;;;;9.73;2.20;;;27.10;79.70;;;;;;5093458;28;20059;-68
2023/08/29 13:19:55;;;;;;;15.63;3.10;;;28.30;76.00;;;;;;5093529;28;20047;-68
2023/08/29 13:22:58;;;;;;;10.82;2.78;;;29.50;74.40;;;;;;5092939;28;20051;-68
2023/08/29 13:26:03;;;;;;;12.68;3.25;;;29.90;71.10;;;;;;5093936;28;20396;-69
2023/08/29 13:29:08;;;;;;;12.95;3.13;;;30.50;71.20;;;;;;5092791;28;20043;-68
2023/08/29 13:32:12;;;;;;;15.52;3.58;;;30.70;69.30;;;;;;5093426;28;20503;-67
2023/08/29 13:35:19;;;;;;;20.65;3.80;;;31.10;69.60;;;;;;5093680;28;20038;-68
2023/08/29 13:38:26;;;;;;;11.05;3.00;;;31.30;68.90;;;;;;5093475;28;20047;-69
2023/08/29 13:41:30;;;;;;;16.10;3.28;;;31.50;68.10;;;;;;5093250;28;20031;-68
2023/08/29 13:44:34;;;;;;;12.20;3.60;;;31.60;66.50;;;;;;5093085;28;20522;-69
2023/08/29 13:47:39;;;;;;;22.23;3.78;;;31.70;66.40;;;;;;5093167;28;20042;-69
2023/08/29 13:50:44;;;;;;;18.30;2.97;;;31.80;65.90;;;;;;5093193;28;20047;-68
2023/08/29 13:53:49;;;;;;;20.20;4.25;;;31.80;66.40;;;;;;5092658;28;20046;-69
2023/08/29 13:56:53;;;;;;;13.95;3.42;;;31.80;65.20;;;;;;5092964;28;20518;-69
2023/08/29 13:59:57;;;;;;;21.02;4.30;;;31.80;64.30;;;;;;5093006;28;20047;-69
2023/08/29 14:03:01;;;;;;;20.08;3.33;;;32.00;64.50;;;;;;5092952;28;20051;-69
2023/08/29 14:06:05;;;;;;;15.43;2.60;;;31.50;64.90;;;;;;5093050;28;20055;-69
2023/08/29 14:09:09;;;;;;;16.38;3.10;;;30.60;65.20;;;;;;5092698;28;20122;-68
2023/08/29 14:12:16;;;;;;;18.55;3.67;;;29.90;64.50;;;;;;5092875;28;20035;-67
2023/08/29 14:15:22;;;;;;;16.83;2.92;;;29.30;66.10;;;;;;5092484;28;20507;-68
2023/08/29 14:18:26;;;;;;;13.85;3.38;;;28.90;67.10;;;;;;5092935;28;20059;-69
2023/08/29 14:21:30;;;;;;;19.30;3.42;;;28.80;67.60;;;;;;5092349;28;20047;-69
2023/08/29 14:24:34;;;;;;;10.65;2.60;;;28.70;66.00;;;;;;5092558;28;20051;-68
2023/08/29 14:27:38;;;;;;;14.88;2.95;;;28.70;66.60;;;;;;5092259;28;20039;-68
2023/08/29 14:30:46;;;;;;;15.07;3.00;;;28.60;67.10;;;;;;5092663;28;20055;-68
2023/08/29 14:33:51;;;;;;;13.60;3.58;;;28.60;66.30;;;;;;5092062;28;20055;-68
2023/08/29 14:36:55;;;;;;;20.67;3.35;;;28.60;66.50;;;;;;5091980;28;20055;-69
2023/08/29 14:39:59;;;;;;;20.08;3.25;;;28.40;68.10;;;;;;5092155;28;20043;-68
2023/08/29 14:43:04;;;;;;;18.98;3.17;;;28.40;70.90;;;;;;5092286;28;20050;-69
2023/08/29 14:46:08;;;;;;;21.27;3.33;;;28.20;71.90;;;;;;5092292;28;20047;-68
2023/08/29 14:49:13;;;;;;;19.02;3.65;;;27.90;73.20;;;;;;5091895;28;20043;-68
2023/08/29 14:52:21;;;;;;;15.65;3.22;;;27.70;73.40;;;;;;5091625;28;20055;-69
2023/08/29 14:55:28;;;;;;;16.65;3.22;;;27.60;74.00;;;;;;5091736;28;20050;-68
2023/08/29 14:58:33;;;;;;;20.58;3.38;;;27.50;74.70;;;;;;5091781;28;20510;-70
2023/08/29 15:01:37;;;;;;;17.23;3.58;;;27.50;74.70;;;;;;5091858;28;20388;-69
2023/08/29 15:04:42;;;;;;;16.23;4.40;;;27.40;74.80;;;;;;5091802;28;20089;-69
2023/08/29 15:07:45;;;;;;;19.65;4.05;;;27.40;75.00;;;;;;5091725;28;20043;-69
2023/08/29 15:10:49;;;;;;;22.10;4.00;;;27.30;75.20;;;;;;5091646;28;20396;-68
2023/08/29 15:13:53;;;;;;;20.70;3.50;;;27.30;75.00;;;;;;5091464;28;20055;-68
2023/08/29 15:16:57;;;;;;;19.98;3.38;;;27.30;75.40;;;;;;5090407;28;20058;-69
2023/08/29 15:20:04;;;;;;;14.18;3.58;;;27.40;74.80;;;;;;5091346;28;20039;-68
2023/08/29 15:23:15;;;;;;;15.98;3.00;;;28.80;73.10;;;;;;5091245;28;20059;-69
2023/08/29 15:26:18;;;;;;;22.87;3.90;;;29.90;70.70;;;;;;5091351;28;20039;-68
2023/08/29 15:29:22;;;;;;;22.00;4.18;;;30.50;68.70;;;;;;5091601;28;20051;-70
2023/08/29 15:32:30;;;;;;;15.18;3.90;;;30.90;67.50;;;;;;5090086;28;20051;-69
2023/08/29 15:35:35;;;;;;;21.65;4.78;;;30.70;66.00;;;;;;5090208;28;20059;-69
2023/08/29 15:38:39;;;;;;;20.35;3.65;;;29.90;67.20;;;;;;5091071;28;20047;-69
2023/08/29 15:41:43;;;;;;;16.30;3.60;;;29.10;67.60;;;;;;5091320;28;20051;-68
2023/08/29 15:44:47;;;;;;;20.33;3.80;;;28.40;68.90;;;;;;5090371;28;20043;-69
2023/08/29 15:47:52;;;;;;;27.85;3.70;;;28.00;70.00;;;;;;5091191;28;20055;-68
2023/08/29 15:50:56;;;;;;;19.65;4.00;;;27.80;70.90;;;;;;5091114;28;20734;-69
2023/08/29 15:54:00;;;;;;;18.80;3.97;;;27.60;71.00;;;;;;5091590;28;20047;-69